Time;durP1;ratioP1;P1;durP2;ratioP2;P2;SDS_P1;SDS_P2;PMS_P1;PMS_P2;Temp;Humidity;BMP_temperature;BMP_pressure;BME280_temperature;BME280_humidity;BME280_pressure;Samples;Min_cycle;Max_cycle;Signal;HPM_P1;HPM_P2
2021/03/19 00:02:09;;;;;;;17.30;4.70;;;5.80;99.90;;;;;;5052650;28;20256;-74
2021/03/19 00:04:34;;;;;;;19.50;3.67;;;5.60;99.90;;;;;;5035402;28;20288;-75
2021/03/19 00:07:00;;;;;;;13.90;4.20;;;5.60;99.90;;;;;;5048522;28;20192;-74
2021/03/19 00:09:26;;;;;;;12.70;3.40;;;5.50;99.90;;;;;;5030770;28;20179;-74
2021/03/19 00:11:52;;;;;;;12.03;3.03;;;5.50;99.90;;;;;;5035521;28;20582;-74
2021/03/19 00:14:21;;;;;;;14.23;3.63;;;5.50;99.90;;;;;;5044624;28;20210;-75
2021/03/19 00:16:47;;;;;;;14.83;3.63;;;5.50;99.90;;;;;;5053229;28;20167;-74
2021/03/19 00:19:13;;;;;;;12.07;3.00;;;5.60;99.90;;;;;;5053221;28;20197;-74
2021/03/19 00:21:38;;;;;;;7.33;3.10;;;5.50;99.90;;;;;;5034585;28;20219;-74
2021/03/19 00:24:08;;;;;;;10.87;3.63;;;5.50;99.90;;;;;;5053139;28;20249;-74
2021/03/19 00:26:34;;;;;;;12.83;3.30;;;5.40;99.90;;;;;;5035285;28;20207;-74
2021/03/19 00:29:00;;;;;;;14.23;3.47;;;5.50;99.90;;;;;;5053108;28;20159;-74
2021/03/19 00:31:25;;;;;;;14.40;3.27;;;5.60;99.90;;;;;;5051452;28;20187;-74
2021/03/19 00:33:51;;;;;;;12.07;3.33;;;5.60;99.90;;;;;;5035322;28;20175;-74
2021/03/19 00:36:17;;;;;;;8.27;2.63;;;5.50;99.90;;;;;;5053026;28;20533;-74
2021/03/19 00:38:42;;;;;;;13.33;2.93;;;5.40;99.90;;;;;;5035253;28;20172;-75
2021/03/19 00:41:09;;;;;;;14.17;2.77;;;5.50;99.90;;;;;;5052691;28;20685;-75
2021/03/19 00:43:35;;;;;;;13.73;3.00;;;5.50;99.90;;;;;;5055033;28;20195;-74
2021/03/19 00:46:03;;;;;;;15.27;3.00;;;5.50;99.90;;;;;;5056791;28;20332;-74
2021/03/19 00:48:30;;;;;;;14.93;3.00;;;5.50;99.90;;;;;;5038321;28;20178;-74
2021/03/19 00:50:56;;;;;;;7.20;2.57;;;5.50;99.90;;;;;;5038714;28;20591;-75
2021/03/19 00:53:22;;;;;;;20.87;3.93;;;5.30;99.90;;;;;;5038905;28;20179;-74
2021/03/19 00:55:49;;;;;;;12.77;3.40;;;5.00;99.90;;;;;;5056681;28;20669;-74
2021/03/19 00:58:15;;;;;;;21.50;3.20;;;5.00;99.90;;;;;;5038882;28;20225;-75
2021/03/19 01:00:40;;;;;;;8.63;3.10;;;4.90;99.90;;;;;;5056208;28;20195;-75
2021/03/19 01:03:07;;;;;;;17.33;2.83;;;4.90;99.90;;;;;;5038754;28;20175;-75
2021/03/19 01:05:36;;;;;;;8.73;3.10;;;5.00;99.90;;;;;;5038405;28;20649;-75
2021/03/19 01:08:08;;;;;;;19.43;3.70;;;5.10;99.90;;;;;;5038605;28;20592;-75
2021/03/19 01:10:39;;;;;;;13.73;2.80;;;5.20;99.90;;;;;;5038599;28;20199;-75
2021/03/19 01:13:05;;;;;;;14.83;3.67;;;5.30;99.90;;;;;;5056606;28;20176;-75
2021/03/19 01:15:32;;;;;;;10.03;2.67;;;5.40;99.90;;;;;;5056123;28;20641;-76
2021/03/19 01:18:04;;;;;;;11.30;2.43;;;5.60;99.90;;;;;;5038612;28;20214;-75
2021/03/19 01:20:32;;;;;;;16.03;3.53;;;5.60;99.90;;;;;;5055742;28;20341;-75
2021/03/19 01:22:58;;;;;;;10.03;2.63;;;5.70;99.90;;;;;;5038703;28;20190;-75
2021/03/19 01:25:27;;;;;;;7.57;2.53;;;5.60;99.90;;;;;;5038480;28;20190;-75
2021/03/19 01:27:52;;;;;;;14.17;3.00;;;5.70;99.90;;;;;;5056130;28;20174;-75
2021/03/19 01:30:22;;;;;;;14.93;3.10;;;5.80;99.90;;;;;;5055720;28;20310;-75
2021/03/19 01:32:48;;;;;;;7.77;2.43;;;5.70;99.90;;;;;;5038164;28;20195;-75
2021/03/19 01:35:15;;;;;;;15.30;2.87;;;5.70;99.90;;;;;;5055736;28;20547;-75
2021/03/19 01:37:42;;;;;;;7.73;2.53;;;5.60;99.90;;;;;;5056008;28;20171;-75
2021/03/19 01:40:11;;;;;;;13.53;3.00;;;5.30;99.90;;;;;;5038126;28;20229;-76
2021/03/19 01:42:50;;;;;;;14.13;3.43;;;5.20;99.90;;;;;;5037663;28;20175;-75
2021/03/19 01:45:53;;;;;;;8.47;2.27;;;5.00;99.90;;;;;;5037631;28;20191;-75
2021/03/19 01:48:56;;;;;;;14.53;2.90;;;4.90;99.90;;;;;;5055836;28;20249;-75
2021/03/19 01:51:59;;;;;;;8.20;2.67;;;5.00;99.90;;;;;;5037838;28;20186;-75
2021/03/19 01:55:02;;;;;;;9.53;2.57;;;4.90;99.90;;;;;;5037412;28;20553;-75
2021/03/19 01:58:05;;;;;;;13.43;3.13;;;4.80;99.90;;;;;;5037646;28;20178;-75
2021/03/19 02:01:08;;;;;;;4.23;2.00;;;4.70;99.90;;;;;;5037099;28;20294;-75
2021/03/19 02:04:12;;;;;;;10.03;2.60;;;4.80;99.90;;;;;;5055077;28;20254;-75
2021/03/19 02:07:15;;;;;;;12.50;3.00;;;4.80;99.90;;;;;;5055354;28;20329;-75
2021/03/19 02:10:18;;;;;;;18.20;3.10;;;4.80;99.90;;;;;;5055169;28;20193;-75
2021/03/19 02:13:21;;;;;;;7.87;2.90;;;4.90;99.90;;;;;;5054629;28;20171;-74
2021/03/19 02:16:24;;;;;;;8.10;2.37;;;4.70;99.90;;;;;;5055254;28;20520;-75
2021/03/19 02:19:28;;;;;;;13.70;2.73;;;4.50;99.90;;;;;;5055034;28;20171;-75
2021/03/19 02:22:31;;;;;;;15.30;2.23;;;4.20;99.90;;;;;;5008932;28;20581;-75
2021/03/19 02:25:34;;;;;;;13.10;2.90;;;4.20;99.90;;;;;;5039909;28;20182;-75
2021/03/19 02:28:37;;;;;;;10.37;3.03;;;4.10;99.90;;;;;;5054911;28;20642;-75
2021/03/19 02:31:12;;;;;;;9.27;3.53;;;4.00;99.90;;;;;;5054578;28;20183;-75
2021/03/19 02:33:54;;;;;;;11.13;3.37;;;4.10;99.90;;;;;;5036859;28;20186;-75
2021/03/19 02:36:24;;;;;;;9.03;3.03;;;4.10;99.90;;;;;;5037035;28;20175;-74
2021/03/19 02:38:50;;;;;;;11.97;2.90;;;4.10;99.90;;;;;;5036892;28;20176;-74
2021/03/19 02:41:16;;;;;;;18.87;2.90;;;4.10;99.90;;;;;;5054485;28;20646;-74
2021/03/19 02:43:42;;;;;;;8.37;3.50;;;4.20;99.90;;;;;;5036498;28;20195;-75
2021/03/19 02:46:09;;;;;;;13.40;3.47;;;4.40;99.90;;;;;;5036851;28;20191;-74
2021/03/19 02:48:35;;;;;;;14.10;3.70;;;4.40;99.90;;;;;;5054751;28;20195;-76
2021/03/19 02:51:01;;;;;;;14.20;2.93;;;4.40;99.90;;;;;;5054059;28;20190;-75
2021/03/19 02:53:29;;;;;;;6.93;2.93;;;4.40;99.90;;;;;;5043480;28;20172;-75
2021/03/19 02:55:56;;;;;;;14.30;3.23;;;4.40;99.90;;;;;;5034625;28;20167;-75
2021/03/19 02:58:22;;;;;;;10.93;3.70;;;4.40;99.90;;;;;;5016664;28;20172;-74
2021/03/19 03:00:48;;;;;;;7.37;3.30;;;4.40;99.90;;;;;;5053735;28;20207;-75
2021/03/19 03:03:14;;;;;;;9.10;3.20;;;4.50;99.90;;;;;;5054280;28;20180;-75
2021/03/19 03:05:40;;;;;;;10.33;3.73;;;4.50;99.90;;;;;;5036002;28;20199;-75
2021/03/19 03:08:07;;;;;;;11.20;3.70;;;4.70;99.90;;;;;;5054252;28;20198;-75
2021/03/19 03:10:35;;;;;;;10.23;3.43;;;4.60;99.90;;;;;;5035583;28;20183;-75
2021/03/19 03:13:01;;;;;;;12.30;3.57;;;4.50;99.90;;;;;;5035974;28;20176;-75
2021/03/19 03:15:27;;;;;;;6.40;3.73;;;4.50;99.90;;;;;;5053927;28;20246;-75
2021/03/19 03:17:53;;;;;;;10.67;4.27;;;4.60;99.90;;;;;;5036743;28;20251;-74
2021/03/19 03:20:31;;;;;;;7.07;3.80;;;4.50;99.90;;;;;;5053319;28;20531;-75
2021/03/19 03:22:57;;;;;;;6.87;4.57;;;4.40;99.90;;;;;;5054007;28;20229;-74
2021/03/19 03:25:24;;;;;;;23.60;6.00;;;4.50;99.90;;;;;;5019542;28;20175;-75
2021/03/19 03:27:52;;;;;;;9.77;4.40;;;4.70;99.90;;;;;;5035809;28;20197;-75
2021/03/19 03:30:24;;;;;;;12.10;5.07;;;4.60;99.90;;;;;;5053236;28;20529;-75
2021/03/19 03:32:50;;;;;;;9.73;4.93;;;4.40;99.90;;;;;;5035433;28;20191;-75
2021/03/19 03:35:17;;;;;;;7.20;4.20;;;4.20;99.90;;;;;;5035762;28;20548;-75
2021/03/19 03:37:43;;;;;;;18.00;5.13;;;4.00;99.90;;;;;;5035830;28;20229;-75
2021/03/19 03:40:13;;;;;;;15.63;4.53;;;3.90;99.90;;;;;;5053241;28;20175;-75
2021/03/19 03:42:40;;;;;;;8.27;4.27;;;3.90;99.90;;;;;;5053421;28;20232;-75
2021/03/19 03:45:08;;;;;;;17.70;5.07;;;3.80;99.90;;;;;;5053708;28;20182;-75
2021/03/19 03:47:34;;;;;;;8.47;5.10;;;3.70;99.90;;;;;;5019221;28;20176;-74
2021/03/19 03:50:00;;;;;;;17.80;5.67;;;3.80;99.90;;;;;;5052958;28;20164;-75
2021/03/19 03:52:26;;;;;;;13.67;5.53;;;3.80;99.90;;;;;;5053068;28;20178;-75
2021/03/19 03:54:51;;;;;;;9.53;4.50;;;3.70;99.90;;;;;;5035497;28;20175;-75
2021/03/19 03:57:18;;;;;;;9.83;5.80;;;3.80;99.90;;;;;;5035713;28;20262;-74
2021/03/19 03:59:44;;;;;;;14.27;5.43;;;3.70;99.90;;;;;;5035614;28;20221;-75
2021/03/19 04:02:21;;;;;;;12.33;6.17;;;3.60;99.90;;;;;;5052461;28;20207;-74
2021/03/19 04:04:50;;;;;;;10.13;5.50;;;3.50;99.90;;;;;;5053317;28;20624;-75
2021/03/19 04:07:17;;;;;;;13.30;5.17;;;3.70;99.90;;;;;;5053085;28;20170;-75
2021/03/19 04:09:43;;;;;;;12.93;5.87;;;3.70;99.90;;;;;;5053383;28;20172;-74
2021/03/19 04:12:11;;;;;;;7.73;5.70;;;3.80;99.90;;;;;;5052760;28;20186;-75
2021/03/19 04:14:37;;;;;;;9.37;5.17;;;3.80;99.90;;;;;;5052709;28;20179;-75
2021/03/19 04:17:26;;;;;;;16.63;6.67;;;3.80;99.90;;;;;;5052472;28;20225;-75
2021/03/19 04:19:52;;;;;;;12.87;6.07;;;3.80;99.90;;;;;;5053042;28;20217;-75
2021/03/19 04:22:18;;;;;;;13.00;6.80;;;3.90;99.90;;;;;;5052748;28;20604;-75
2021/03/19 04:24:44;;;;;;;10.83;5.33;;;3.90;99.90;;;;;;5035246;28;20182;-75
2021/03/19 04:27:17;;;;;;;12.73;6.90;;;4.00;99.90;;;;;;5053141;28;20171;-75
2021/03/19 04:29:43;;;;;;;11.60;6.47;;;4.00;99.90;;;;;;5035128;28;20171;-75
2021/03/19 04:32:09;;;;;;;11.67;6.13;;;4.00;99.90;;;;;;5034234;28;20190;-75
2021/03/19 04:34:34;;;;;;;8.53;6.13;;;3.90;99.90;;;;;;5052744;28;20536;-75
2021/03/19 04:37:00;;;;;;;17.37;6.70;;;3.90;99.90;;;;;;5035028;28;20168;-74
2021/03/19 04:39:29;;;;;;;16.17;6.67;;;3.70;99.90;;;;;;5053023;28;20168;-75
2021/03/19 04:41:57;;;;;;;10.70;6.27;;;3.60;99.90;;;;;;5018393;28;20218;-75
2021/03/19 04:44:26;;;;;;;9.83;7.00;;;3.60;99.90;;;;;;5052751;28;20257;-75
2021/03/19 04:46:52;;;;;;;12.33;7.00;;;3.60;99.90;;;;;;5052696;28;20669;-75
2021/03/19 04:49:19;;;;;;;12.20;6.70;;;3.60;99.90;;;;;;5018599;28;20171;-74
2021/03/19 04:51:45;;;;;;;10.80;6.83;;;3.60;99.90;;;;;;5034459;28;20172;-75
2021/03/19 04:54:11;;;;;;;14.67;7.83;;;3.50;99.90;;;;;;5052859;28;20254;-75
2021/03/19 04:56:37;;;;;;;11.67;7.50;;;3.50;99.90;;;;;;5034756;28;20168;-75
2021/03/19 04:59:04;;;;;;;9.73;7.13;;;3.30;99.90;;;;;;5034840;28;20184;-76
2021/03/19 05:01:29;;;;;;;18.17;8.13;;;3.40;99.90;;;;;;5051837;28;20218;-75
2021/03/19 05:03:55;;;;;;;9.57;7.50;;;3.40;99.90;;;;;;5035011;28;20171;-75
2021/03/19 05:06:21;;;;;;;12.70;7.90;;;3.40;99.90;;;;;;5052769;28;20174;-75
2021/03/19 05:08:47;;;;;;;17.73;8.07;;;3.30;99.90;;;;;;5052741;28;20204;-74
2021/03/19 05:11:15;;;;;;;18.93;8.30;;;3.30;99.90;;;;;;5034645;28;20223;-75
2021/03/19 05:13:41;;;;;;;11.27;8.80;;;3.20;99.90;;;;;;5034470;28;20650;-75
2021/03/19 05:16:08;;;;;;;12.43;8.33;;;3.20;99.90;;;;;;5034292;28;20182;-75
2021/03/19 05:18:34;;;;;;;17.57;8.30;;;3.30;99.90;;;;;;5014755;28;20176;-75
2021/03/19 05:21:00;;;;;;;13.77;8.83;;;3.30;99.90;;;;;;5014989;28;20290;-75
2021/03/19 05:23:29;;;;;;;11.07;8.57;;;3.30;99.90;;;;;;5051443;28;20258;-75
2021/03/19 05:25:55;;;;;;;12.40;9.00;;;3.20;99.90;;;;;;5052492;28;20186;-74
2021/03/19 05:28:21;;;;;;;16.23;9.03;;;3.10;99.90;;;;;;5051954;28;20616;-75
2021/03/19 05:30:53;;;;;;;12.73;8.83;;;3.10;99.90;;;;;;5037879;28;20547;-75
2021/03/19 05:33:21;;;;;;;14.47;9.27;;;3.00;99.90;;;;;;5038079;28;20666;-75
2021/03/19 05:35:46;;;;;;;10.70;9.53;;;3.00;99.90;;;;;;5056219;28;20163;-75
2021/03/19 05:38:12;;;;;;;16.70;9.17;;;2.90;99.90;;;;;;5037810;28;20230;-75
2021/03/19 05:40:47;;;;;;;16.90;9.73;;;2.80;99.90;;;;;;5055320;28;20261;-75
2021/03/19 05:43:23;;;;;;;14.10;9.63;;;2.80;99.90;;;;;;5055691;28;20173;-74
2021/03/19 05:46:09;;;;;;;13.57;10.10;;;2.70;99.90;;;;;;5037873;28;20178;-74
2021/03/19 05:48:56;;;;;;;19.50;11.03;;;2.70;99.90;;;;;;5055549;28;20175;-74
2021/03/19 05:51:34;;;;;;;12.33;9.77;;;2.70;99.90;;;;;;5055075;28;20534;-75
2021/03/19 05:54:15;;;;;;;12.43;10.57;;;2.70;99.90;;;;;;5055769;28;20191;-74
2021/03/19 05:56:42;;;;;;;15.30;10.80;;;2.70;99.90;;;;;;5055591;28;20163;-75
2021/03/19 05:59:08;;;;;;;17.53;10.47;;;2.80;99.90;;;;;;5037701;28;20182;-74
2021/03/19 06:01:35;;;;;;;17.97;11.23;;;2.80;99.90;;;;;;5055008;28;20219;-75
2021/03/19 06:04:03;;;;;;;16.33;10.30;;;2.80;99.90;;;;;;5037882;28;20175;-75
2021/03/19 06:07:01;;;;;;;19.40;12.13;;;2.80;99.90;;;;;;5055403;28;20620;-74
2021/03/19 06:09:42;;;;;;;16.30;11.40;;;2.90;99.90;;;;;;5037107;28;20309;-75
2021/03/19 06:12:14;;;;;;;23.87;11.70;;;3.00;99.90;;;;;;5054928;28;20258;-75
2021/03/19 06:14:49;;;;;;;14.87;11.30;;;2.90;99.90;;;;;;5037618;28;20210;-75
2021/03/19 06:17:26;;;;;;;18.37;11.40;;;2.90;99.90;;;;;;5037452;28;20171;-75
2021/03/19 06:20:08;;;;;;;21.57;12.53;;;2.80;99.90;;;;;;5037001;28;20673;-75
2021/03/19 06:23:03;;;;;;;15.53;11.13;;;2.80;99.90;;;;;;5054443;28;20188;-74
2021/03/19 06:25:55;;;;;;;16.07;12.57;;;2.90;99.90;;;;;;5045627;28;20188;-74
2021/03/19 06:28:39;;;;;;;13.33;11.70;;;3.10;99.90;;;;;;5036923;28;20255;-75
2021/03/19 06:31:28;;;;;;;21.87;12.97;;;3.20;99.90;;;;;;5054817;28;20179;-74
2021/03/19 06:34:06;;;;;;;16.10;12.57;;;3.30;99.90;;;;;;5054611;28;20301;-75
2021/03/19 06:36:33;;;;;;;18.33;12.17;;;3.10;99.90;;;;;;5054806;28;20163;-75
2021/03/19 06:39:45;;;;;;;20.87;12.30;;;3.10;99.90;;;;;;5036678;28;20693;-75
2021/03/19 06:42:20;;;;;;;20.57;12.77;;;3.10;99.90;;;;;;5048821;28;20241;-75
2021/03/19 06:45:04;;;;;;;17.83;11.70;;;3.40;99.90;;;;;;5054279;28;20189;-74
2021/03/19 06:47:57;;;;;;;15.67;10.67;;;3.50;99.90;;;;;;5036168;28;20190;-75
2021/03/19 06:50:22;;;;;;;14.73;11.27;;;3.60;99.90;;;;;;5050321;28;20266;-75
2021/03/19 06:52:49;;;;;;;13.50;10.47;;;3.60;99.90;;;;;;5036379;28;20579;-75
2021/03/19 06:55:36;;;;;;;15.27;12.00;;;3.60;99.90;;;;;;5036412;28;20175;-75
2021/03/19 06:58:02;;;;;;;16.47;11.33;;;3.70;99.90;;;;;;5036196;28;20175;-75
2021/03/19 07:00:49;;;;;;;11.17;10.07;;;3.90;99.90;;;;;;5054395;28;20247;-74
2021/03/19 07:03:51;;;;;;;24.13;13.43;;;4.60;99.90;;;;;;5036466;28;20167;-74
2021/03/19 07:06:26;;;;;;;17.77;9.10;;;5.20;99.90;;;;;;5034147;28;20211;-74
2021/03/19 07:09:36;;;;;;;15.20;12.00;;;5.20;99.90;;;;;;5048818;28;20670;-74
2021/03/19 07:12:27;;;;;;;14.80;9.17;;;5.50;99.90;;;;;;5036420;28;20189;-75
2021/03/19 07:14:56;;;;;;;14.40;10.17;;;6.10;99.90;;;;;;5054032;28;20673;-75
2021/03/19 07:17:53;;;;;;;8.53;7.23;;;6.90;99.90;;;;;;5053959;28;20163;-75
2021/03/19 07:20:42;;;;;;;7.70;6.90;;;7.40;99.90;;;;;;5022639;28;20183;-74
2021/03/19 07:23:26;;;;;;;7.00;6.30;;;8.70;99.90;;;;;;5003105;28;20239;-75
2021/03/19 07:26:16;;;;;;;7.27;6.47;;;10.20;99.90;;;;;;5053270;28;20167;-74
2021/03/19 07:29:13;;;;;;;10.20;6.18;;;11.90;99.90;;;;;;5053600;28;20168;-75
2021/03/19 07:32:12;;;;;;;9.40;4.85;;;11.40;99.90;;;;;;5053756;28;20167;-75
2021/03/19 07:34:49;;;;;;;5.38;4.28;;;11.90;99.90;;;;;;5053990;28;20518;-75
2021/03/19 07:37:35;;;;;;;6.55;4.93;;;12.80;99.90;;;;;;5053028;28;20627;-75
2021/03/19 07:40:19;;;;;;;5.00;4.45;;;12.50;99.90;;;;;;5035954;28;20197;-75
2021/03/19 07:43:03;;;;;;;10.45;4.07;;;12.30;99.90;;;;;;5053618;28;20183;-76
2021/03/19 07:45:33;;;;;;;5.75;4.60;;;12.00;99.90;;;;;;5053320;28;20168;-74
2021/03/19 07:48:09;;;;;;;4.15;3.80;;;12.00;99.90;;;;;;5034950;28;20328;-75
2021/03/19 07:51:01;;;;;;;8.73;4.40;;;12.50;99.90;;;;;;5053393;28;20288;-75
2021/03/19 07:53:54;;;;;;;4.63;4.05;;;12.90;99.90;;;;;;5035500;28;20179;-75
2021/03/19 07:56:44;;;;;;;4.97;4.47;;;13.80;99.90;;;;;;5053063;28;20212;-75
2021/03/19 07:59:30;;;;;;;5.32;4.00;;;13.10;99.90;;;;;;5053268;28;20632;-75
2021/03/19 08:02:35;;;;;;;4.18;3.42;;;13.30;99.90;;;;;;5053314;28;20234;-75
2021/03/19 08:05:24;;;;;;;4.10;3.42;;;16.30;99.90;;;;;;5035505;28;20649;-75
2021/03/19 08:08:20;;;;;;;3.55;3.25;;;18.60;99.90;;;;;;5052969;28;20168;-75
2021/03/19 08:10:54;;;;;;;8.60;3.25;;;17.30;99.90;;;;;;5053138;28;20167;-75
2021/03/19 08:13:37;;;;;;;3.35;3.05;;;17.50;99.90;;;;;;5053456;28;20690;-75
2021/03/19 08:16:17;;;;;;;4.72;3.10;;;18.80;99.40;;;;;;5053137;28;20209;-76
2021/03/19 08:19:11;;;;;;;7.32;2.70;;;18.00;96.20;;;;;;5047676;28;20178;-74
2021/03/19 08:21:46;;;;;;;3.03;2.58;;;17.50;97.10;;;;;;5035400;28;20561;-76
2021/03/19 08:24:18;;;;;;;4.15;3.30;;;17.60;96.30;;;;;;5053485;28;20224;-75
2021/03/19 08:27:10;;;;;;;3.20;2.90;;;17.20;97.60;;;;;;5034785;28;20176;-75
2021/03/19 08:29:53;;;;;;;5.28;2.83;;;18.40;96.50;;;;;;5033011;28;20172;-75
2021/03/19 08:33:00;;;;;;;3.13;2.83;;;18.20;94.10;;;;;;5033076;28;20290;-75
2021/03/19 08:35:47;;;;;;;4.75;3.95;;;17.10;94.80;;;;;;5022971;28;20170;-75
2021/03/19 08:38:26;;;;;;;6.88;3.85;;;15.30;96.70;;;;;;5034735;28;20649;-75
2021/03/19 08:41:08;;;;;;;3.53;3.22;;;14.80;97.30;;;;;;5053129;28;20206;-74
2021/03/19 08:43:47;;;;;;;3.38;3.08;;;15.40;99.00;;;;;;5049612;28;20187;-75
2021/03/19 08:46:19;;;;;;;3.20;2.80;;;15.00;97.20;;;;;;5046442;28;20254;-75
2021/03/19 08:48:47;;;;;;;3.90;3.47;;;16.90;97.00;;;;;;5034662;28;20197;-75
2021/03/19 08:51:33;;;;;;;3.08;2.80;;;16.40;95.20;;;;;;5052618;28;20183;-75
2021/03/19 08:54:17;;;;;;;3.20;2.90;;;16.20;95.30;;;;;;5051922;28;20531;-75
2021/03/19 08:56:45;;;;;;;2.90;2.63;;;17.50;94.10;;;;;;5033954;28;20194;-75
2021/03/19 08:59:31;;;;;;;12.13;3.40;;;17.70;93.30;;;;;;5034079;28;20268;-73
2021/03/19 09:02:16;;;;;;;8.98;7.38;;;15.50;93.70;;;;;;5052345;28;20215;-74
2021/03/19 09:05:00;;;;;;;27.27;21.55;;;16.80;93.20;;;;;;5052814;28;20258;-76
2021/03/19 09:07:25;;;;;;;7.47;6.55;;;17.70;94.00;;;;;;5044271;28;20643;-75
2021/03/19 09:09:53;;;;;;;7.80;6.57;;;19.00;93.50;;;;;;5056507;28;20163;-75
2021/03/19 09:12:25;;;;;;;5.65;4.32;;;18.80;91.20;;;;;;5037476;28;20229;-75
2021/03/19 09:15:13;;;;;;;3.10;2.83;;;19.90;90.10;;;;;;5055581;28;20171;-74
2021/03/19 09:17:47;;;;;;;5.28;2.85;;;16.80;92.50;;;;;;5036000;28;20199;-75
2021/03/19 09:20:25;;;;;;;3.22;2.55;;;18.30;93.70;;;;;;5018608;28;20225;-75
2021/03/19 09:23:12;;;;;;;3.30;2.53;;;18.90;92.30;;;;;;5024029;28;20187;-76
2021/03/19 09:25:37;;;;;;;17.67;15.85;;;17.70;90.80;;;;;;5037874;28;20262;-76
2021/03/19 09:28:22;;;;;;;4.68;4.05;;;16.60;93.40;;;;;;5038124;28;20270;-76
2021/03/19 09:31:02;;;;;;;3.40;2.95;;;15.80;93.90;;;;;;5037906;28;20168;-76
2021/03/19 09:33:43;;;;;;;7.35;4.70;;;15.80;95.30;;;;;;5055419;28;20243;-75
2021/03/19 09:36:46;;;;;;;3.53;2.75;;;15.70;94.60;;;;;;5055569;28;20170;-76
2021/03/19 09:39:50;;;;;;;4.72;2.83;;;15.50;95.60;;;;;;5037752;28;20646;-77
2021/03/19 09:42:19;;;;;;;6.45;3.95;;;14.90;95.60;;;;;;5055532;28;20562;-76
2021/03/19 09:44:47;;;;;;;14.70;11.60;;;14.40;95.60;;;;;;5054469;28;20242;-76
2021/03/19 09:47:14;;;;;;;6.80;5.65;;;13.90;96.80;;;;;;5055304;28;20198;-75
2021/03/19 09:49:39;;;;;;;7.35;3.50;;;15.00;95.90;;;;;;5037710;28;20658;-75
2021/03/19 09:52:18;;;;;;;3.85;2.30;;;14.10;95.10;;;;;;5037388;28;20173;-75
2021/03/19 09:54:45;;;;;;;10.13;3.72;;;14.90;96.30;;;;;;5053527;28;20651;-75
2021/03/19 09:57:28;;;;;;;4.68;3.30;;;17.10;93.40;;;;;;5055177;28;20651;-75
2021/03/19 09:59:59;;;;;;;5.95;4.60;;;16.70;94.40;;;;;;5021560;28;20175;-75
2021/03/19 10:02:30;;;;;;;7.75;6.22;;;16.50;92.40;;;;;;5054683;28;20218;-77
2021/03/19 10:05:11;;;;;;;3.88;2.75;;;15.80;93.70;;;;;;5021831;28;20176;-75
2021/03/19 10:07:50;;;;;;;6.50;2.53;;;15.60;94.10;;;;;;5054695;28;20217;-75
2021/03/19 10:10:37;;;;;;;4.80;4.30;;;16.70;93.30;;;;;;5055425;28;20167;-75
2021/03/19 10:13:17;;;;;;;3.70;3.30;;;16.10;92.20;;;;;;5054053;28;20638;-74
2021/03/19 10:15:46;;;;;;;3.88;1.95;;;16.10;93.60;;;;;;5054869;28;20199;-74
2021/03/19 10:18:40;;;;;;;2.83;2.53;;;16.50;92.70;;;;;;5037058;28;20172;-74
2021/03/19 10:21:09;;;;;;;5.10;1.65;;;16.20;92.00;;;;;;5054586;28;20218;-75
2021/03/19 10:23:39;;;;;;;3.72;1.58;;;17.20;92.10;;;;;;5036529;28;20254;-73
2021/03/19 10:26:09;;;;;;;1.60;1.50;;;17.30;91.20;;;;;;5054783;28;20168;-75
2021/03/19 10:28:36;;;;;;;2.35;1.70;;;16.30;91.80;;;;;;5054512;28;20163;-75
2021/03/19 10:31:08;;;;;;;1.90;1.80;;;17.40;91.70;;;;;;5036792;28;21724;-74
2021/03/19 10:33:39;;;;;;;3.33;1.80;;;16.80;90.10;;;;;;5054352;28;20180;-74
2021/03/19 10:36:11;;;;;;;4.65;1.55;;;16.10;92.10;;;;;;5054199;28;20175;-74
2021/03/19 10:38:47;;;;;;;1.80;1.60;;;18.60;90.30;;;;;;5054764;28;20684;-73
2021/03/19 10:41:27;;;;;;;5.50;1.63;;;19.00;90.90;;;;;;5036833;28;20558;-74
2021/03/19 10:44:25;;;;;;;1.58;1.40;;;17.40;90.60;;;;;;5053443;28;20207;-73
2021/03/19 10:47:11;;;;;;;2.40;1.80;;;16.50;90.80;;;;;;5036567;28;20180;-74
2021/03/19 10:49:55;;;;;;;1.55;1.27;;;17.30;89.30;;;;;;5054537;28;20210;-74
2021/03/19 10:52:44;;;;;;;2.05;1.02;;;18.30;88.40;;;;;;5054353;28;20170;-73
2021/03/19 10:55:33;;;;;;;1.40;1.30;;;17.20;88.40;;;;;;5034544;28;20654;-73
2021/03/19 10:58:19;;;;;;;2.78;1.30;;;17.70;86.30;;;;;;5016554;28;20207;-74
2021/03/19 11:00:46;;;;;;;1.70;1.27;;;18.10;85.00;;;;;;5034401;28;20195;-74
2021/03/19 11:03:32;;;;;;;2.15;1.40;;;19.40;83.40;;;;;;5045656;28;20174;-74
2021/03/19 11:06:07;;;;;;;1.77;1.60;;;21.30;79.20;;;;;;5039122;28;20270;-74
2021/03/19 11:08:36;;;;;;;2.13;1.67;;;18.70;83.40;;;;;;5036341;28;20267;-74
2021/03/19 11:11:03;;;;;;;2.70;1.80;;;18.60;83.20;;;;;;5036144;28;20199;-75
2021/03/19 11:13:32;;;;;;;2.28;2.08;;;19.20;86.20;;;;;;5052704;28;20176;-74
2021/03/19 11:16:02;;;;;;;2.75;1.70;;;20.60;81.90;;;;;;5053654;28;20224;-75
2021/03/19 11:18:39;;;;;;;2.53;2.33;;;18.90;79.70;;;;;;5036480;28;20519;-75
2021/03/19 11:21:07;;;;;;;2.08;1.60;;;17.80;81.10;;;;;;5053335;28;20191;-74
2021/03/19 11:24:14;;;;;;;3.50;2.13;;;16.50;86.00;;;;;;5053400;28;20175;-74
2021/03/19 11:26:41;;;;;;;4.55;1.90;;;17.30;88.40;;;;;;4956028;28;20177;-74
2021/03/19 11:29:29;;;;;;;2.97;1.75;;;16.30;87.90;;;;;;5022749;28;20329;-78
2021/03/19 11:32:10;;;;;;;2.17;1.90;;;16.10;85.40;;;;;;5053488;28;20266;-78
2021/03/19 11:34:42;;;;;;;2.05;1.40;;;14.90;88.60;;;;;;5045464;28;20175;-78
2021/03/19 11:37:16;;;;;;;2.20;1.60;;;15.30;89.00;;;;;;5053408;28;20163;-74
2021/03/19 11:39:59;;;;;;;3.53;1.60;;;15.60;87.40;;;;;;5035615;28;20531;-79
2021/03/19 11:42:39;;;;;;;2.42;1.73;;;14.70;90.90;;;;;;5053377;28;20238;-77
2021/03/19 11:45:15;;;;;;;2.10;1.60;;;15.00;88.70;;;;;;5053047;28;20653;-78
2021/03/19 11:47:51;;;;;;;4.05;1.90;;;15.00;89.70;;;;;;5035402;28;20535;-77
2021/03/19 11:50:23;;;;;;;3.28;2.45;;;15.50;89.50;;;;;;5034551;28;20159;-74
2021/03/19 11:52:52;;;;;;;5.22;4.45;;;16.70;88.30;;;;;;5035550;28;20175;-76
2021/03/19 11:55:23;;;;;;;3.80;1.83;;;17.30;90.60;;;;;;5053153;28;20301;-76
2021/03/19 11:57:50;;;;;;;2.47;1.88;;;18.20;85.40;;;;;;5034817;28;20174;-74
2021/03/19 12:00:21;;;;;;;2.20;2.00;;;15.10;87.80;;;;;;5034715;28;20175;-74
2021/03/19 12:02:51;;;;;;;2.58;2.38;;;15.00;90.00;;;;;;5053284;28;20347;-74
2021/03/19 12:05:19;;;;;;;2.25;2.05;;;14.70;90.00;;;;;;5034769;28;20512;-75
2021/03/19 12:07:46;;;;;;;1.95;1.83;;;14.10;89.00;;;;;;5053069;28;20164;-75
2021/03/19 12:10:13;;;;;;;5.28;2.42;;;14.60;90.70;;;;;;5052577;28;20194;-74
2021/03/19 12:12:39;;;;;;;2.33;1.70;;;14.80;90.50;;;;;;5051860;28;20175;-74
2021/03/19 12:15:07;;;;;;;3.70;2.08;;;16.40;91.10;;;;;;5053124;28;20183;-74
2021/03/19 12:17:32;;;;;;;3.40;2.40;;;18.80;88.30;;;;;;5053016;28;20176;-74
2021/03/19 12:19:58;;;;;;;4.20;1.90;;;18.70;85.50;;;;;;5052411;28;20176;-74
2021/03/19 12:22:24;;;;;;;2.38;2.10;;;19.60;82.30;;;;;;5052937;28;20203;-74
2021/03/19 12:24:50;;;;;;;3.80;1.92;;;18.20;85.10;;;;;;5035009;28;20247;-74
2021/03/19 12:27:16;;;;;;;4.25;1.80;;;18.20;84.30;;;;;;5051619;28;20172;-74
2021/03/19 12:29:41;;;;;;;3.40;2.17;;;17.40;83.10;;;;;;5018634;28;20567;-76
2021/03/19 12:32:08;;;;;;;1.80;1.70;;;16.30;85.40;;;;;;5052873;28;20191;-74
2021/03/19 12:34:34;;;;;;;2.47;1.80;;;16.60;87.50;;;;;;5051918;28;20640;-76
2021/03/19 12:37:00;;;;;;;1.92;1.63;;;15.40;88.40;;;;;;5034469;28;20186;-74
2021/03/19 12:39:26;;;;;;;2.28;1.80;;;14.20;91.40;;;;;;5053195;28;20199;-74
2021/03/19 12:41:52;;;;;;;2.55;1.92;;;15.30;88.80;;;;;;5055142;28;20234;-74
2021/03/19 12:44:18;;;;;;;2.28;2.08;;;14.80;90.60;;;;;;5055611;28;20558;-74
2021/03/19 12:46:44;;;;;;;2.13;1.70;;;14.30;92.20;;;;;;5055719;28;20198;-74
2021/03/19 12:49:10;;;;;;;7.13;1.98;;;13.80;92.00;;;;;;5037721;28;20178;-74
2021/03/19 12:51:36;;;;;;;3.80;2.38;;;12.70;91.70;;;;;;5037639;28;20179;-74
2021/03/19 12:54:03;;;;;;;4.05;2.17;;;12.40;92.40;;;;;;5055509;28;20168;-74
2021/03/19 12:56:30;;;;;;;3.13;2.20;;;13.30;92.00;;;;;;5037241;28;20237;-74
2021/03/19 12:58:55;;;;;;;6.97;2.35;;;13.40;92.40;;;;;;5055180;28;20168;-74
2021/03/19 13:01:22;;;;;;;1.90;1.80;;;12.00;92.40;;;;;;5037033;28;20582;-74
2021/03/19 13:03:49;;;;;;;2.22;1.95;;;11.60;93.10;;;;;;5036713;28;20187;-74
2021/03/19 13:06:20;;;;;;;2.38;2.00;;;11.50;93.90;;;;;;5054741;28;20179;-74
2021/03/19 13:08:46;;;;;;;2.08;1.92;;;11.10;93.40;;;;;;5036949;28;20168;-75
2021/03/19 13:11:13;;;;;;;2.75;2.10;;;10.30;94.30;;;;;;5055504;28;20549;-75
2021/03/19 13:13:40;;;;;;;4.07;2.10;;;10.30;95.80;;;;;;5037578;28;20194;-75
2021/03/19 13:16:08;;;;;;;1.65;1.42;;;10.50;95.50;;;;;;5054934;28;20221;-75
2021/03/19 13:18:34;;;;;;;2.42;2.03;;;10.70;94.70;;;;;;5037275;28;20180;-75
2021/03/19 13:21:00;;;;;;;2.60;1.52;;;10.70;94.00;;;;;;5036689;28;20205;-74
2021/03/19 13:23:26;;;;;;;1.67;1.58;;;10.60;95.50;;;;;;5053208;28;20631;-75
2021/03/19 13:25:52;;;;;;;2.22;1.70;;;10.80;94.90;;;;;;5055175;28;20167;-75
2021/03/19 13:28:18;;;;;;;2.22;1.80;;;10.80;95.90;;;;;;5037166;28;20690;-75